createdAt,value
2019-03-01T00:00:49.622Z,19.1
2019-03-01T00:01:39.744Z,19.1
2019-03-01T00:02:29.784Z,19.1
2019-03-01T00:03:20.077Z,19
2019-03-01T00:04:09.599Z,19
2019-03-01T00:04:59.672Z,19
2019-03-01T00:05:49.957Z,19
2019-03-01T00:06:40.040Z,19
2019-03-01T00:07:30.387Z,19
2019-03-01T00:08:19.938Z,19
2019-03-01T00:09:09.624Z,19
2019-03-01T00:09:59.721Z,19.1
2019-03-01T00:10:50.089Z,19
2019-03-01T00:11:40.145Z,19.1
2019-03-01T00:12:30.428Z,19.1
2019-03-01T00:13:20.514Z,19.1
2019-03-01T00:14:10.884Z,19.1
2019-03-01T00:15:00.357Z,19.1
2019-03-01T00:15:50.711Z,19.2
2019-03-01T00:16:40.170Z,19.3
2019-03-01T00:17:30.489Z,19.3
2019-03-01T00:18:19.725Z,19.3
2019-03-01T00:19:09.972Z,19.2
2019-03-01T00:20:01.347Z,19.2
2019-03-01T00:20:50.067Z,19.3
2019-03-01T00:21:40.417Z,19.4
2019-03-01T00:22:30.783Z,19.6
2019-03-01T00:23:20.797Z,19.6
2019-03-01T00:24:10.569Z,19.8
2019-03-01T00:25:00.432Z,19.9
2019-03-01T00:25:51.290Z,19.9
2019-03-01T00:26:40.800Z,20.1
2019-03-01T00:27:29.694Z,20.1
2019-03-01T00:28:20.870Z,20.2
2019-03-01T00:29:11.517Z,20.3
2019-03-01T00:30:00.483Z,20.3
2019-03-01T00:30:50.515Z,20.4
2019-03-01T00:31:41.930Z,20.5
2019-03-01T00:32:30.942Z,20.6
2019-03-01T00:33:21.815Z,20.6
2019-03-01T00:34:11.844Z,20.6
2019-03-01T00:35:02.035Z,20.7
2019-03-01T00:35:52.220Z,20.7
2019-03-01T00:36:41.766Z,20.7
2019-03-01T00:37:31.234Z,20.8
2019-03-01T00:38:21.256Z,20.8
2019-03-01T00:39:11.366Z,20.8
2019-03-01T00:40:01.474Z,20.8
2019-03-01T00:40:51.489Z,20.8
2019-03-01T00:41:42.414Z,20.8
2019-03-01T00:42:31.558Z,20.8
2019-03-01T00:43:22.742Z,20.8
2019-03-01T00:44:11.698Z,20.8
2019-03-01T00:45:03.055Z,20.8
2019-03-01T00:45:52.441Z,20.8
2019-03-01T00:46:41.636Z,20.9
2019-03-01T00:47:31.936Z,20.9
2019-03-01T00:48:21.438Z,20.9
2019-03-01T00:49:12.308Z,20.9
2019-03-01T00:50:02.393Z,20.9
2019-03-01T00:50:51.947Z,20.9
2019-03-01T00:51:42.477Z,20.9
2019-03-01T00:52:33.133Z,20.9
2019-03-01T00:53:23.246Z,20.9
2019-03-01T00:54:12.686Z,20.9
2019-03-01T00:55:02.750Z,20.9
2019-03-01T00:55:53.375Z,20.9
2019-03-01T00:56:42.008Z,20.9
2019-03-01T00:57:33.140Z,20.9
2019-03-01T00:58:22.694Z,20.9
2019-03-01T00:59:13.029Z,20.9
2019-03-01T01:00:02.935Z,20.9
2019-03-01T01:00:53.398Z,20.9
2019-03-01T01:01:42.633Z,20.9
2019-03-01T01:02:33.310Z,20.9
2019-03-01T01:03:23.640Z,20.9
2019-03-01T01:04:13.355Z,20.9
2019-03-01T01:05:03.187Z,21
2019-03-01T01:05:53.489Z,21
2019-03-01T01:06:43.272Z,21.1
2019-03-01T01:07:33.368Z,21
2019-03-01T01:08:24.219Z,21
2019-03-01T01:09:13.757Z,21
2019-03-01T01:10:18.792Z,21
2019-03-01T01:10:54.690Z,21
2019-03-01T01:11:43.640Z,21
2019-03-01T01:12:33.928Z,21
2019-03-01T01:13:23.764Z,21
2019-03-01T01:14:13.779Z,21
2019-03-01T01:15:04.899Z,21
2019-03-01T01:15:54.209Z,21
2019-03-01T01:16:44.259Z,21.1
2019-03-01T01:17:34.845Z,21.1
2019-03-01T01:18:24.374Z,21.1
2019-03-01T01:19:13.842Z,21.1
2019-03-01T01:20:04.664Z,21.1
2019-03-01T01:20:54.774Z,21.1
2019-03-01T01:21:44.293Z,21.1
2019-03-01T01:22:35.201Z,21
2019-03-01T01:23:24.994Z,21.1
2019-03-01T01:24:13.701Z,21
2019-03-01T01:25:05.126Z,21
2019-03-01T01:25:54.241Z,21
2019-03-01T01:26:44.471Z,21
2019-03-01T01:27:34.217Z,20.9
2019-03-01T01:28:24.906Z,20.9
2019-03-01T01:29:15.216Z,21
2019-03-01T01:30:05.579Z,21
2019-03-01T01:30:54.669Z,20.9
2019-03-01T01:31:45.046Z,21
2019-03-01T01:32:35.623Z,21
2019-03-01T01:33:25.439Z,21.1
2019-03-01T01:34:15.493Z,21.1
2019-03-01T01:35:05.409Z,21.1
2019-03-01T01:35:55.797Z,21.1
2019-03-01T01:36:45.593Z,21.1
2019-03-01T01:37:35.749Z,21.1
2019-03-01T01:38:25.198Z,21.1
2019-03-01T01:39:14.955Z,21.1
2019-03-01T01:40:06.180Z,21.1
2019-03-01T01:40:55.081Z,21.1
2019-03-01T01:41:45.735Z,21.1
2019-03-01T01:42:35.501Z,21.1
2019-03-01T01:43:27.288Z,21.1
2019-03-01T01:44:15.603Z,21.1
2019-03-01T01:45:57.665Z,21.1
2019-03-01T01:46:46.580Z,21.1
2019-03-01T01:49:16.745Z,21.1
2019-03-01T01:50:56.323Z,21.1
2019-03-01T01:51:46.173Z,21.1
2019-03-01T01:52:36.457Z,21.1
2019-03-01T01:53:27.331Z,21
2019-03-01T01:54:17.110Z,21
2019-03-01T01:55:07.512Z,21
2019-03-01T01:55:57.512Z,21
2019-03-01T01:56:47.607Z,21
2019-03-01T01:57:36.805Z,21
2019-03-01T01:58:27.399Z,21
2019-03-01T01:59:17.171Z,21
2019-03-01T02:00:07.380Z,21
2019-03-01T02:00:58.112Z,21
2019-03-01T02:01:47.335Z,21.1
2019-03-01T02:02:36.593Z,21
2019-03-01T02:03:26.609Z,21
2019-03-01T02:04:17.824Z,21
2019-03-01T02:05:07.044Z,21
2019-03-01T02:05:57.442Z,20.9
2019-03-01T02:06:48.539Z,21
2019-03-01T02:07:38.039Z,20.9
2019-03-01T02:08:28.395Z,20.9
2019-03-01T02:09:18.159Z,21
2019-03-01T02:10:08.219Z,20.9
2019-03-01T02:10:58.542Z,21
2019-03-01T02:11:48.639Z,20.9
2019-03-01T02:12:38.952Z,21
2019-03-01T02:13:28.444Z,21
2019-03-01T02:14:17.978Z,21.1
2019-03-01T02:15:07.994Z,21.1
2019-03-01T02:15:59.166Z,21.1
2019-03-01T02:16:48.750Z,21.1
2019-03-01T02:17:38.726Z,21.1
2019-03-01T02:18:28.211Z,21.1
2019-03-01T02:19:18.828Z,21.1
2019-03-01T02:20:08.661Z,21.1
2019-03-01T02:20:58.933Z,21.1
2019-03-01T02:21:48.201Z,21.1
2019-03-01T02:22:38.804Z,21
2019-03-01T02:23:29.174Z,21
2019-03-01T02:24:19.308Z,21
2019-03-01T02:25:08.735Z,21
2019-03-01T02:25:59.101Z,21
2019-03-01T02:26:49.691Z,21
2019-03-01T02:27:39.418Z,21
2019-03-01T02:28:29.216Z,21
2019-03-01T02:29:20.107Z,21
2019-03-01T02:30:09.804Z,21.1
2019-03-01T02:31:00.081Z,21.1
2019-03-01T02:32:40.099Z,21.1
2019-03-01T02:33:29.688Z,21.1
2019-03-01T02:34:19.931Z,21.1
2019-03-01T02:35:10.534Z,21.1
2019-03-01T02:36:00.395Z,21.1
2019-03-01T02:36:50.444Z,21.1
2019-03-01T02:37:39.947Z,21.1
2019-03-01T02:38:30.261Z,21
2019-03-01T02:39:19.505Z,21.1
2019-03-01T02:40:09.270Z,21.1
2019-03-01T02:40:59.593Z,21.1
2019-03-01T02:41:50.481Z,21.1
2019-03-01T02:42:40.246Z,21.1
2019-03-01T02:43:30.355Z,21.1
2019-03-01T02:44:19.073Z,21.1
2019-03-01T02:45:09.710Z,21.1
2019-03-01T02:51:01.099Z,21.1
2019-03-01T02:54:21.394Z,21.1
2019-03-01T02:55:10.944Z,21.1
2019-03-01T02:56:01.735Z,21.1
2019-03-01T02:56:51.871Z,21
2019-03-01T02:57:40.546Z,21
2019-03-01T02:58:31.086Z,21
2019-03-01T02:59:21.471Z,21
2019-03-01T03:00:11.494Z,21.1
2019-03-01T03:01:01.557Z,21.1
2019-03-01T03:01:51.847Z,21.1
2019-03-01T03:02:42.484Z,21.1
2019-03-01T03:07:54.504Z,21.1
2019-03-01T03:08:44.352Z,21.1
2019-03-01T03:09:34.667Z,21.1
2019-03-01T03:10:23.892Z,21
2019-03-01T03:11:14.476Z,21
2019-03-01T03:12:04.364Z,21
2019-03-01T03:12:54.901Z,21
2019-03-01T03:13:44.936Z,20.9
2019-03-01T03:14:34.740Z,21
2019-03-01T03:15:24.515Z,21
2019-03-01T03:16:15.103Z,21
2019-03-01T03:17:05.402Z,21
2019-03-01T03:17:55.332Z,21.1
2019-03-01T03:18:45.515Z,21.1
2019-03-01T03:19:35.334Z,21
2019-03-01T03:20:25.384Z,21.1
2019-03-01T03:21:15.182Z,21.1
2019-03-01T03:22:05.782Z,21.1
2019-03-01T03:22:53.915Z,21.1
2019-03-01T03:23:45.335Z,21.1
2019-03-01T03:24:35.710Z,21.1
2019-03-01T03:25:25.965Z,21.1
2019-03-01T03:26:15.732Z,21
2019-03-01T03:27:06.075Z,21
2019-03-01T03:27:55.723Z,21
2019-03-01T03:28:45.171Z,21
2019-03-01T03:29:35.813Z,21
2019-03-01T03:30:26.148Z,21
2019-03-01T03:31:15.555Z,21
2019-03-01T03:32:06.736Z,21
2019-03-01T03:32:56.290Z,21
2019-03-01T03:33:46.567Z,21.1
2019-03-01T03:34:36.073Z,21.1
2019-03-01T03:35:26.984Z,21.1
2019-03-01T03:36:16.029Z,21.1
2019-03-01T03:37:06.527Z,21.1
2019-03-01T03:37:56.150Z,21.1
2019-03-01T03:38:46.445Z,21.1
2019-03-01T03:39:36.434Z,21.1
2019-03-01T03:40:25.695Z,21.1
2019-03-01T03:41:15.438Z,21.1
2019-03-01T03:42:05.498Z,21.1
2019-03-01T03:42:56.523Z,21.1
2019-03-01T03:43:45.678Z,21.1
2019-03-01T03:44:36.750Z,21
2019-03-01T03:45:26.378Z,21
2019-03-01T03:46:16.684Z,21
2019-03-01T03:47:06.145Z,21
2019-03-01T03:47:56.542Z,21
2019-03-01T03:48:46.873Z,21.1
2019-03-01T03:49:36.361Z,21.1
2019-03-01T03:50:27.234Z,21.1
2019-03-01T03:51:16.806Z,21.1
2019-03-01T03:52:06.274Z,21.1
2019-03-01T03:52:57.137Z,21
2019-03-01T03:53:47.197Z,21
2019-03-01T03:54:37.200Z,21.1
2019-03-01T03:55:26.794Z,21.1
2019-03-01T03:56:16.996Z,21.1
2019-03-01T03:57:06.852Z,21.1
2019-03-01T03:57:57.124Z,21.1
2019-03-01T04:07:57.827Z,21.1
2019-03-01T04:08:48.695Z,21.1
2019-03-01T04:09:38.516Z,21.1
2019-03-01T04:10:28.661Z,21.1
2019-03-01T04:11:18.801Z,21.1
2019-03-01T04:12:09.213Z,21.1
2019-03-01T04:12:58.821Z,21
2019-03-01T04:13:49.017Z,20.9
2019-03-01T04:14:39.195Z,20.8
2019-03-01T04:15:28.625Z,20.8
2019-03-01T04:16:18.673Z,20.8
2019-03-01T04:17:08.882Z,20.7
2019-03-01T04:17:59.103Z,20.6
2019-03-01T04:18:48.232Z,20.6
2019-03-01T04:19:38.665Z,20.6
2019-03-01T04:20:28.406Z,20.5
2019-03-01T04:21:18.745Z,20.6
2019-03-01T04:22:09.164Z,20.5
2019-03-01T04:22:59.411Z,20.5
2019-03-01T04:23:49.742Z,20.5
2019-03-01T04:24:39.304Z,20.5
2019-03-01T04:25:29.226Z,20.6
2019-03-01T04:26:18.752Z,20.5
2019-03-01T04:27:09.294Z,20.5
2019-03-01T04:27:59.122Z,20.5
2019-03-01T04:28:49.520Z,20.5
2019-03-01T04:29:39.840Z,20.5
2019-03-01T04:30:29.477Z,20.5
2019-03-01T04:31:19.657Z,20.5
2019-03-01T04:32:09.978Z,20.5
2019-03-01T04:32:59.241Z,20.5
2019-03-01T04:33:50.428Z,20.5
2019-03-01T04:34:39.629Z,20.5
2019-03-01T04:35:30.187Z,20.4
2019-03-01T04:36:20.027Z,20.4
2019-03-01T04:37:10.642Z,20.4
2019-03-01T04:38:00.210Z,20.4
2019-03-01T04:38:49.967Z,20.4
2019-03-01T04:39:40.201Z,20.4
2019-03-01T04:40:30.353Z,20.4
2019-03-01T04:41:20.374Z,20.3
2019-03-01T04:42:10.936Z,20.3
2019-03-01T04:43:00.797Z,20.3
2019-03-01T04:43:50.756Z,20.3
2019-03-01T04:44:40.816Z,20.3
2019-03-01T04:45:30.123Z,20.3
2019-03-01T04:46:21.155Z,20.3
2019-03-01T04:47:10.441Z,20.3
2019-03-01T04:48:01.099Z,20.4
2019-03-01T04:48:51.118Z,20.3
2019-03-01T04:49:41.360Z,20.3
2019-03-01T04:50:30.696Z,20.3
2019-03-01T04:51:21.078Z,20.3
2019-03-01T04:52:11.278Z,20.3
2019-03-01T04:53:00.598Z,20.3
2019-03-01T04:53:50.948Z,20.3
2019-03-01T04:54:40.420Z,20.3
2019-03-01T04:55:31.305Z,20.3
2019-03-01T04:56:23.520Z,20.3
2019-03-01T04:57:12.160Z,20.3
2019-03-01T04:58:01.778Z,20.3
2019-03-01T04:58:51.555Z,20.3
2019-03-01T04:59:41.570Z,20.3
2019-03-01T05:00:32.405Z,20.3
2019-03-01T05:01:21.365Z,20.3
2019-03-01T05:02:11.753Z,20.2
2019-03-01T05:03:01.607Z,20.3
2019-03-01T05:03:52.408Z,20.2
2019-03-01T05:04:42.135Z,20.2
2019-03-01T05:05:31.137Z,20.2
2019-03-01T05:06:22.810Z,20.2
2019-03-01T05:07:12.324Z,20.2
2019-03-01T05:08:02.414Z,20.2
2019-03-01T05:08:52.608Z,20.2
2019-03-01T05:09:42.249Z,20.3
2019-03-01T05:10:32.554Z,20.3
2019-03-01T05:11:22.284Z,20.3
2019-03-01T05:12:12.925Z,20.3
2019-03-01T05:13:03.619Z,20.3
2019-03-01T05:13:52.752Z,20.3
2019-03-01T05:14:43.080Z,20.3
2019-03-01T05:15:33.182Z,20.3
2019-03-01T05:16:22.387Z,20.3
2019-03-01T05:17:13.031Z,20.3
2019-03-01T05:18:03.087Z,20.3
2019-03-01T05:18:53.654Z,20.3
2019-03-01T05:19:43.439Z,20.3
2019-03-01T05:20:36.576Z,20.3
2019-03-01T05:21:23.614Z,20.3
2019-03-01T05:22:13.356Z,20.3
2019-03-01T05:23:03.989Z,20.3
2019-03-01T05:23:53.500Z,20.3
2019-03-01T05:24:43.549Z,20.3
2019-03-01T05:25:33.047Z,20.3
2019-03-01T05:26:23.659Z,20.3
2019-03-01T05:27:13.973Z,20.3
2019-03-01T05:28:04.326Z,20.3
2019-03-01T05:28:54.404Z,20.3
2019-03-01T05:29:43.846Z,20.2
2019-03-01T05:30:34.201Z,20.2
2019-03-01T05:31:23.962Z,20.2
2019-03-01T05:32:14.296Z,20.2
2019-03-01T05:33:04.396Z,20.2
2019-03-01T05:33:56.389Z,20.2
2019-03-01T05:34:44.751Z,20.2
2019-03-01T05:35:33.701Z,20.2
2019-03-01T05:36:24.070Z,20.3
2019-03-01T05:37:14.141Z,20.3
2019-03-01T05:38:04.131Z,20.3
2019-03-01T05:38:54.498Z,20.3
2019-03-01T05:39:45.138Z,20.3
2019-03-01T05:40:34.973Z,20.3
2019-03-01T05:41:24.086Z,20.3
2019-03-01T05:42:14.744Z,20.3
2019-03-01T05:43:04.908Z,20.3
2019-03-01T05:43:54.833Z,20.3
2019-03-01T05:44:45.268Z,20.3
2019-03-01T05:45:34.451Z,20.3
2019-03-01T05:46:24.496Z,20.3
2019-03-01T05:47:14.806Z,20.3
2019-03-01T05:48:05.724Z,20.3
2019-03-01T05:48:55.194Z,20.3
2019-03-01T05:49:45.803Z,20.3
2019-03-01T05:50:35.324Z,20.2
2019-03-01T05:51:25.103Z,20.2
2019-03-01T05:52:15.978Z,20.2
2019-03-01T05:53:06.073Z,20.2
2019-03-01T05:53:55.002Z,20.2
2019-03-01T05:54:45.827Z,20.2
2019-03-01T05:55:35.366Z,20.1
2019-03-01T05:56:25.723Z,20.1
2019-03-01T05:57:16.284Z,20.1
2019-03-01T05:58:05.571Z,20.1
2019-03-01T05:58:56.421Z,20.1
2019-03-01T05:59:45.371Z,20.2
2019-03-01T06:00:36.805Z,20.2
2019-03-01T06:01:26.303Z,20.1
2019-03-01T06:02:16.389Z,20.1
2019-03-01T06:03:06.450Z,20.1
2019-03-01T06:03:56.493Z,20.1
2019-03-01T06:06:09.813Z,20.1
2019-03-01T06:06:44.020Z,20.2
2019-03-01T06:07:49.233Z,20.1
2019-03-01T06:08:24.553Z,20.1
2019-03-01T06:09:14.866Z,20.1
2019-03-01T06:10:04.469Z,20.2
2019-03-01T06:10:59.795Z,20.1
2019-03-01T06:11:43.815Z,20.1
2019-03-01T06:12:33.819Z,20.1
2019-03-01T06:13:24.752Z,20.1
2019-03-01T06:14:15.347Z,20.1
2019-03-01T06:15:04.750Z,20.1
2019-03-01T06:15:54.928Z,20
2019-03-01T06:16:47.230Z,20.1
2019-03-01T06:17:34.452Z,20
2019-03-01T06:18:25.640Z,20
2019-03-01T06:19:14.839Z,20
2019-03-01T06:20:05.622Z,20
2019-03-01T06:20:55.237Z,20
2019-03-01T06:21:45.547Z,20
2019-03-01T06:22:35.069Z,19.9
2019-03-01T06:23:25.784Z,20
2019-03-01T06:24:15.505Z,19.9
2019-03-01T06:25:05.127Z,20
2019-03-01T06:25:55.139Z,20
2019-03-01T06:26:45.354Z,20
2019-03-01T06:27:35.474Z,20
2019-03-01T06:28:25.533Z,20
2019-03-01T06:29:15.549Z,20
2019-03-01T06:30:06.576Z,20
2019-03-01T06:30:58.544Z,20
2019-03-01T06:31:45.985Z,20
2019-03-01T06:32:36.109Z,19.9
2019-03-01T06:33:26.391Z,19.9
2019-03-01T06:34:15.327Z,20
2019-03-01T06:35:05.886Z,19.9
2019-03-01T06:35:56.458Z,19.9
2019-03-01T06:36:46.601Z,19.9
2019-03-01T06:37:36.473Z,19.9
2019-03-01T06:38:26.179Z,19.9
2019-03-01T06:39:16.508Z,19.9
2019-03-01T06:40:06.733Z,19.9
2019-03-01T06:40:56.333Z,19.9
2019-03-01T06:41:46.947Z,19.9
2019-03-01T06:42:36.426Z,19.9
2019-03-01T06:43:27.723Z,19.9
2019-03-01T06:44:16.033Z,19.9
2019-03-01T06:45:06.585Z,19.9
2019-03-01T06:45:56.411Z,19.9
2019-03-01T06:46:47.276Z,19.9
2019-03-01T06:47:36.773Z,19.9
2019-03-01T06:48:26.053Z,19.9
2019-03-01T06:49:16.916Z,19.9
2019-03-01T06:50:07.912Z,19.9
2019-03-01T06:50:57.018Z,19.9
2019-03-01T06:51:46.392Z,19.9
2019-03-01T06:52:37.706Z,19.9
2019-03-01T06:53:27.750Z,19.9
2019-03-01T06:54:18.128Z,20
2019-03-01T06:55:08.081Z,20.1
2019-03-01T06:55:57.363Z,20.1
2019-03-01T06:56:46.892Z,20.1
2019-03-01T06:57:37.185Z,20.2
2019-03-01T06:58:28.185Z,20.2
2019-03-01T06:59:17.590Z,20.3
2019-03-01T07:00:08.015Z,20.3
2019-03-01T07:00:57.685Z,20.4
2019-03-01T07:01:48.050Z,20.4
2019-03-01T07:02:38.098Z,20.5
2019-03-01T07:03:27.393Z,20.5
2019-03-01T07:06:04.291Z,20.6
2019-03-01T07:06:44.572Z,20.6
2019-03-01T07:07:34.640Z,20.6
2019-03-01T07:08:23.659Z,20.6
2019-03-01T07:09:14.778Z,20.6
2019-03-01T07:10:04.991Z,20.6
2019-03-01T07:10:54.607Z,20.6
2019-03-01T07:11:44.646Z,20.6
2019-03-01T07:12:34.977Z,20.6
2019-03-01T07:13:25.026Z,20.6
2019-03-01T07:14:14.272Z,20.6
2019-03-01T07:15:09.374Z,20.6
2019-03-01T07:15:55.172Z,20.6
2019-03-01T07:16:45.542Z,20.6
2019-03-01T07:17:33.941Z,20.7
2019-03-01T07:18:25.185Z,20.8
2019-03-01T07:19:15.633Z,20.7
2019-03-01T07:20:05.659Z,20.7
2019-03-01T07:20:55.611Z,20.8
2019-03-01T07:21:44.761Z,20.8
2019-03-01T07:22:35.419Z,20.8
2019-03-01T07:23:25.169Z,20.8
2019-03-01T07:24:17.308Z,20.8
2019-03-01T07:25:05.956Z,20.8
2019-03-01T07:25:57.757Z,20.8
2019-03-01T07:26:45.426Z,20.7
2019-03-01T07:27:34.973Z,20.7
2019-03-01T07:28:26.039Z,20.8
2019-03-01T07:29:14.848Z,20.8
2019-03-01T07:30:05.731Z,20.8
2019-03-01T07:30:55.423Z,20.8
2019-03-01T07:31:44.949Z,20.8
2019-03-01T07:32:36.059Z,20.7
2019-03-01T07:33:26.155Z,20.7
2019-03-01T07:34:15.709Z,20.8
2019-03-01T07:35:05.854Z,20.8
2019-03-01T07:35:56.563Z,20.8
2019-03-01T07:36:45.798Z,20.7
2019-03-01T07:37:36.715Z,20.7
2019-03-01T07:38:26.818Z,20.8
2019-03-01T07:39:15.717Z,20.8
2019-03-01T07:40:05.818Z,20.8
2019-03-01T07:40:56.408Z,20.8
2019-03-01T07:41:46.430Z,20.8
2019-03-01T07:42:36.812Z,20.8
2019-03-01T07:43:27.103Z,20.8
2019-03-01T07:44:16.587Z,20.8
2019-03-01T07:45:07.417Z,20.8
2019-03-01T07:45:57.325Z,20.8
2019-03-01T07:46:58.602Z,20.8
2019-03-01T07:47:39.327Z,20.8
2019-03-01T07:48:27.430Z,20.7
2019-03-01T07:49:22.035Z,20.6
2019-03-01T07:50:07.292Z,20.6
2019-03-01T07:51:04.812Z,20.7
2019-03-01T07:51:46.880Z,20.7
2019-03-01T07:52:37.470Z,20.7
2019-03-01T07:53:27.265Z,20.7
2019-03-01T07:54:26.839Z,20.7
2019-03-01T07:55:10.336Z,20.7
2019-03-01T07:55:57.207Z,20.7
2019-03-01T07:56:47.739Z,20.7
2019-03-01T07:57:37.350Z,20.7
2019-03-01T07:58:32.812Z,20.6
2019-03-01T07:59:17.636Z,20.6
2019-03-01T08:00:14.857Z,20.6
2019-03-01T08:01:01.639Z,20.6
2019-03-01T08:01:48.048Z,20.6
2019-03-01T08:02:47.804Z,20.6
2019-03-01T08:03:28.175Z,20.6
2019-03-01T08:04:19.302Z,20.7
2019-03-01T08:05:11.841Z,20.7
2019-03-01T08:05:58.395Z,20.8
2019-03-01T08:06:54.498Z,20.8
2019-03-01T08:07:38.209Z,20.8
2019-03-01T08:08:28.581Z,20.8
2019-03-01T08:09:19.154Z,20.7
2019-03-01T08:10:08.374Z,20.8
2019-03-01T08:11:05.317Z,20.8
2019-03-01T08:11:48.210Z,20.8
2019-03-01T08:12:49.116Z,20.8
2019-03-01T08:13:30.359Z,20.8
2019-03-01T08:14:18.607Z,20.8
2019-03-01T08:15:15.842Z,20.8
2019-03-01T08:15:58.771Z,20.8
2019-03-01T08:16:52.540Z,20.8
2019-03-01T08:17:39.732Z,20.8
2019-03-01T08:18:29.253Z,20.8
2019-03-01T08:19:28.443Z,20.8
2019-03-01T08:20:08.320Z,20.9
2019-03-01T08:20:59.761Z,20.8
2019-03-01T08:21:55.949Z,20.9
2019-03-01T08:22:56.711Z,20.8
2019-03-01T08:23:36.408Z,20.9
2019-03-01T08:24:19.415Z,20.9
2019-03-01T08:25:08.593Z,20.9
2019-03-01T08:26:08.273Z,20.9
2019-03-01T08:26:50.404Z,20.9
2019-03-01T08:27:46.123Z,20.9
2019-03-01T08:28:29.480Z,20.9
2019-03-01T08:29:19.590Z,20.9
2019-03-01T08:30:17.220Z,20.9
2019-03-01T08:31:00.133Z,20.9
2019-03-01T08:31:52.676Z,20.9
2019-03-01T08:32:40.493Z,20.9
2019-03-01T08:33:29.736Z,20.9
2019-03-01T08:34:25.178Z,20.8
2019-03-01T08:35:12.568Z,20.8
2019-03-01T08:36:07.657Z,20.8
2019-03-01T08:36:50.819Z,20.8
2019-03-01T08:37:40.932Z,20.8
2019-03-01T08:38:38.081Z,20.8
2019-03-01T08:39:19.665Z,20.8
2019-03-01T08:40:16.708Z,20.8
2019-03-01T08:41:00.841Z,20.8
2019-03-01T08:41:50.282Z,20.8
2019-03-01T08:42:43.134Z,20.8
2019-03-01T08:43:30.902Z,20.9
2019-03-01T08:44:27.915Z,20.9
2019-03-01T08:45:10.794Z,20.9
2019-03-01T08:46:00.882Z,20.9
2019-03-01T08:46:53.279Z,20.9
2019-03-01T08:47:40.969Z,20.9
2019-03-01T08:48:37.961Z,20.9
2019-03-01T08:49:20.907Z,20.9
2019-03-01T08:50:11.141Z,20.9
2019-03-01T08:51:02.531Z,20.8
2019-03-01T08:51:50.403Z,20.8
2019-03-01T08:52:47.071Z,20.7
2019-03-01T08:53:31.911Z,20.8
2019-03-01T08:54:30.967Z,20.8
2019-03-01T08:55:10.954Z,20.8
2019-03-01T08:56:01.815Z,20.8
2019-03-01T08:56:57.914Z,20.8
2019-03-01T08:57:51.354Z,20.8
2019-03-01T08:58:31.145Z,20.8
2019-03-01T08:59:25.480Z,20.8
2019-03-01T09:00:12.351Z,20.9
2019-03-01T09:01:15.216Z,20.9
2019-03-01T09:01:52.687Z,20.9
2019-03-01T09:02:42.063Z,20.9
2019-03-01T09:03:32.297Z,20.9
2019-03-01T09:04:27.607Z,20.9
2019-03-01T09:05:17.323Z,20.9
2019-03-01T09:06:02.279Z,20.9
2019-03-01T09:06:52.348Z,20.9
2019-03-01T09:07:42.621Z,20.9
2019-03-01T09:08:33.421Z,20.9
2019-03-01T09:09:28.390Z,20.9
2019-03-01T09:10:12.828Z,20.9
2019-03-01T09:11:09.147Z,20.9
2019-03-01T09:11:52.738Z,20.9
2019-03-01T09:12:42.670Z,20.8
2019-03-01T09:13:32.743Z,20.8
2019-03-01T09:14:28.817Z,20.5
2019-03-01T09:15:14.923Z,20.4
2019-03-01T09:16:04.420Z,20.3
2019-03-01T09:16:52.961Z,20.3
2019-03-01T09:17:42.995Z,20.3
2019-03-01T09:18:35.450Z,20.3
2019-03-01T09:19:30.742Z,20.3
2019-03-01T09:20:13.721Z,20.3
2019-03-01T09:21:19.545Z,20.4
2019-03-01T09:21:55.846Z,20.4
2019-03-01T09:22:43.709Z,20.4
2019-03-01T09:23:34.517Z,20.5
2019-03-01T09:24:30.629Z,20.5
2019-03-01T09:25:15.860Z,20.5
2019-03-01T09:26:03.357Z,20.5
2019-03-01T09:27:00.621Z,20.5
2019-03-01T09:27:43.989Z,20.5
2019-03-01T09:28:43.957Z,20.5
2019-03-01T09:29:26.309Z,20.5
2019-03-01T09:30:14.487Z,20.5
2019-03-01T09:31:04.261Z,20.6
2019-03-01T09:32:02.806Z,20.6
2019-03-01T09:32:44.682Z,20.6
2019-03-01T09:33:34.098Z,20.6
2019-03-01T09:34:24.444Z,20.6
2019-03-01T09:35:15.021Z,20.6
2019-03-01T09:36:04.603Z,20.6
2019-03-01T09:37:01.701Z,20.6
2019-03-01T09:37:44.439Z,20.7
2019-03-01T09:38:34.184Z,20.7
2019-03-01T09:39:26.021Z,20.7
2019-03-01T09:40:15.154Z,20.7
2019-03-01T09:41:11.324Z,20.6
2019-03-01T09:42:07.331Z,20.6
2019-03-01T09:42:52.307Z,20.7
2019-03-01T09:43:35.431Z,20.6
2019-03-01T09:44:25.728Z,20.6
2019-03-01T09:45:22.241Z,20.7
2019-03-01T09:46:05.261Z,20.7
2019-03-01T09:46:55.297Z,20.7
2019-03-01T09:47:45.626Z,20.8
2019-03-01T09:48:35.759Z,20.8
2019-03-01T09:49:31.588Z,20.7
2019-03-01T09:50:15.248Z,20.6
2019-03-01T09:51:11.736Z,20.6
2019-03-01T09:51:56.531Z,20.5
2019-03-01T09:52:48.006Z,20.4
2019-03-01T09:53:41.007Z,20.4
2019-03-01T09:54:26.115Z,20.4
2019-03-01T09:55:15.377Z,20.3
2019-03-01T09:56:09.611Z,20.3
2019-03-01T09:56:56.560Z,20.3
2019-03-01T09:57:44.703Z,20.3
2019-03-01T09:58:36.119Z,20.3
2019-03-01T09:59:25.725Z,20.3
2019-03-01T10:00:16.498Z,20.3
2019-03-01T10:01:06.865Z,20.3
2019-03-01T10:01:56.058Z,20.3
2019-03-01T10:02:46.655Z,20.3
2019-03-01T10:03:35.915Z,20.3
2019-03-01T10:04:25.955Z,20.3
2019-03-01T10:07:38.265Z,20.3
2019-03-01T10:07:48.204Z,20.3
2019-03-01T10:08:39.015Z,20.3
2019-03-01T12:06:53.626Z,20.8
2019-03-01T12:07:42.916Z,20.8
2019-03-01T12:08:33.808Z,20.9
2019-03-01T12:09:24.345Z,20.9
2019-03-01T12:10:14.764Z,20.9
2019-03-01T12:11:03.372Z,20.9
2019-03-01T12:11:54.523Z,20.9
2019-03-01T12:12:44.656Z,20.9
2019-03-01T12:13:33.318Z,20.8
2019-03-01T12:14:26.809Z,20.8
2019-03-01T12:15:14.752Z,20.8
2019-03-01T12:16:05.114Z,20.8
2019-03-01T12:16:54.340Z,20.8
2019-03-01T12:17:43.820Z,20.8
2019-03-01T12:18:34.418Z,20.8
2019-03-01T12:19:26.695Z,20.8
2019-03-01T12:20:15.110Z,20.8
2019-03-01T12:21:04.623Z,20.8
2019-03-01T12:21:54.997Z,20.8
2019-03-01T12:22:44.750Z,20.8
2019-03-01T12:23:35.112Z,20.8
2019-03-01T12:24:24.580Z,20.8
2019-03-01T12:25:17.730Z,20.8
2019-03-01T12:26:05.027Z,20.8
2019-03-01T12:26:54.820Z,20.8
2019-03-01T12:27:45.462Z,20.8
2019-03-01T12:28:35.482Z,20.8
2019-03-01T12:29:24.892Z,20.7
2019-03-01T12:30:15.522Z,20.8
2019-03-01T12:31:06.537Z,20.8
2019-03-01T12:31:55.676Z,20.8
2019-03-01T12:32:46.012Z,20.8
2019-03-01T12:33:35.226Z,20.7
2019-03-01T12:34:25.540Z,20.7
2019-03-01T12:35:15.859Z,20.7
2019-03-01T12:36:05.957Z,20.7
2019-03-01T12:36:55.162Z,20.7
2019-03-01T12:37:44.985Z,20.6
2019-03-01T12:38:35.876Z,20.6
2019-03-01T12:39:25.962Z,20.6
2019-03-01T12:40:15.706Z,20.6
2019-03-01T12:41:06.309Z,20.6
2019-03-01T12:41:55.773Z,20.6
2019-03-01T12:42:46.746Z,20.6
2019-03-01T12:43:36.744Z,20.6
2019-03-01T12:44:26.291Z,20.6
2019-03-01T12:45:16.096Z,20.6
2019-03-01T12:46:06.363Z,20.6
2019-03-01T12:46:57.027Z,20.6
2019-03-01T12:47:46.209Z,20.7
2019-03-01T12:48:36.581Z,20.7
2019-03-01T12:49:27.181Z,20.7
2019-03-01T12:50:16.390Z,20.7
2019-03-01T12:51:07.556Z,20.8
2019-03-01T12:51:56.563Z,20.8
2019-03-01T12:52:47.135Z,20.8
2019-03-01T12:53:37.433Z,20.7
2019-03-01T12:54:26.955Z,20.7
2019-03-01T12:55:19.618Z,20.7
2019-03-01T12:56:07.378Z,20.7
2019-03-01T12:56:57.135Z,20.7
2019-03-01T12:57:47.285Z,20.7
2019-03-01T12:58:37.018Z,20.7
2019-03-01T12:59:27.063Z,20.8
2019-03-01T13:00:17.930Z,20.8
2019-03-01T13:01:07.498Z,20.8
2019-03-01T13:01:57.788Z,20.8
2019-03-01T13:02:47.227Z,20.8
2019-03-01T13:03:45.070Z,20.7
2019-03-01T13:04:30.205Z,20.7
2019-03-01T13:05:17.109Z,20.6
2019-03-01T13:06:10.971Z,20.7
2019-03-01T13:06:57.791Z,20.6
2019-03-01T13:07:48.031Z,20.6
2019-03-01T13:08:38.264Z,20.6
2019-03-01T13:09:34.191Z,20.6
2019-03-01T13:10:18.374Z,20.6
2019-03-01T13:11:08.130Z,20.6
2019-03-01T13:11:58.528Z,20.5
2019-03-01T13:12:48.195Z,20.6
2019-03-01T13:13:44.913Z,20.6
2019-03-01T13:14:27.841Z,20.6
2019-03-01T13:15:20.601Z,20.6
2019-03-01T13:16:08.478Z,20.6
2019-03-01T13:17:04.796Z,20.6
2019-03-01T13:17:50.403Z,20.6
2019-03-01T13:18:38.641Z,20.6
2019-03-01T13:19:33.280Z,20.6
2019-03-01T13:20:17.963Z,20.6
2019-03-01T13:21:15.511Z,20.5
2019-03-01T13:21:58.358Z,20.6
2019-03-01T13:22:49.575Z,20.5
2019-03-01T13:23:48.292Z,20.5
2019-03-01T13:24:29.037Z,20.5
2019-03-01T13:25:21.025Z,20.5
2019-03-01T13:26:13.514Z,20.6
2019-03-01T13:26:59.495Z,20.6
2019-03-01T13:27:57.305Z,20.6
2019-03-01T13:28:39.345Z,20.6
2019-03-01T13:29:30.362Z,20.6
2019-03-01T13:30:19.797Z,20.6
2019-03-01T13:31:16.775Z,20.6
2019-03-01T13:31:59.061Z,20.6
2019-03-01T13:32:49.924Z,20.6
2019-03-01T13:33:44.315Z,20.6
2019-03-01T13:34:31.690Z,20.6
2019-03-01T13:35:22.177Z,20.6
2019-03-01T13:36:09.465Z,20.6
2019-03-01T13:36:59.429Z,20.6
2019-03-01T13:37:55.243Z,20.6
2019-03-01T13:38:41.951Z,20.6
2019-03-01T13:39:30.126Z,20.6